createdAt,value
2022-09-11T00:01:02.197Z,100420.53
2022-09-11T00:03:30.086Z,100422.75
2022-09-11T00:05:56.838Z,100421.94
2022-09-11T00:08:23.364Z,100432.63
2022-09-11T00:10:50.137Z,100434.00
2022-09-11T00:13:22.526Z,100426.06
2022-09-11T00:15:51.105Z,100429.94
2022-09-11T00:18:21.843Z,100424.47
2022-09-11T00:20:53.384Z,100424.72
2022-09-11T00:23:21.808Z,100423.41
2022-09-11T00:25:48.996Z,100421.78
2022-09-11T00:28:19.841Z,100427.25
2022-09-11T00:30:47.497Z,100435.97
2022-09-11T00:33:15.704Z,100434.34
2022-09-11T00:35:42.699Z,100429.97
2022-09-11T00:38:12.098Z,100431.63
2022-09-11T00:40:50.361Z,100435.41
2022-09-11T00:43:17.813Z,100433.78
2022-09-11T00:45:48.527Z,100437.38
2022-09-11T00:48:20.360Z,100441.16
2022-09-11T00:50:48.159Z,100436.53
2022-09-11T00:53:17.926Z,100428.06
2022-09-11T00:55:50.946Z,100425.84
2022-09-11T00:58:23.786Z,100428.88
2022-09-11T01:00:54.027Z,100431.06
2022-09-11T01:03:20.733Z,100429.97
2022-09-11T01:05:48.336Z,100432.19
2022-09-11T01:08:15.305Z,100434.38
2022-09-11T01:11:21.694Z,100432.16
2022-09-11T01:13:55.122Z,100434.38
2022-09-11T01:16:28.425Z,100437.09
2022-09-11T01:19:24.490Z,100441.44
2022-09-11T01:22:06.220Z,100430.28
2022-09-11T01:24:59.990Z,100442.25
2022-09-11T01:27:31.114Z,100434.16
2022-09-11T01:30:05.427Z,100446.19
2022-09-11T01:32:55.515Z,100441.75
2022-09-11T01:35:29.371Z,100448.09
2022-09-11T01:38:01.789Z,100448.97
2022-09-11T01:40:36.813Z,100452.28
2022-09-11T01:43:07.220Z,100465.09
2022-09-11T01:45:37.272Z,100462.34
2022-09-11T01:48:07.819Z,100462.34
2022-09-11T01:50:37.037Z,100464.56
2022-09-11T01:53:06.721Z,100457.72
2022-09-11T01:55:46.331Z,100467.50
2022-09-11T01:58:23.053Z,100462.63
2022-09-11T02:00:55.564Z,100467.28
2022-09-11T02:03:30.106Z,100473.56
2022-09-11T02:06:04.740Z,100470.03
2022-09-11T02:08:47.218Z,100475.72
2022-09-11T02:11:15.292Z,100477.72
2022-09-11T02:13:52.356Z,100474.47
2022-09-11T02:16:29.924Z,100484.22
2022-09-11T02:19:01.736Z,100476.63
2022-09-11T02:21:29.046Z,100480.47
2022-09-11T02:23:55.963Z,100482.97
2022-09-11T02:26:25.899Z,100479.97
2022-09-11T02:28:53.778Z,100485.75
2022-09-11T02:31:21.609Z,100487.13
2022-09-11T02:33:49.515Z,100483.34
2022-09-11T02:36:38.454Z,100481.66
2022-09-11T02:39:32.771Z,100486.81
2022-09-11T02:42:38.328Z,100484.38
2022-09-11T02:45:14.783Z,100490.97
2022-09-11T02:47:59.700Z,100492.00
2022-09-11T02:50:57.012Z,100492.00
2022-09-11T02:53:38.781Z,100501.88
2022-09-11T02:56:13.214Z,100509.00
2022-09-11T02:58:46.859Z,100509.28
2022-09-11T03:01:13.519Z,100513.44
2022-09-11T03:03:45.277Z,100516.16
2022-09-11T03:06:19.046Z,100520.53
2022-09-11T03:08:45.821Z,100514.00
2022-09-11T03:11:15.366Z,100509.63
2022-09-11T03:13:42.139Z,100518.66
2022-09-11T03:16:08.733Z,100522.19
2022-09-11T03:18:35.749Z,100518.09
2022-09-11T03:21:03.776Z,100524.94
2022-09-11T03:23:30.957Z,100517.03
2022-09-11T03:25:58.783Z,100524.91
2022-09-11T03:28:25.361Z,100522.75
2022-09-11T03:30:55.077Z,100527.97
2022-09-11T03:33:21.872Z,100539.69
2022-09-11T03:35:48.336Z,100534.78
2022-09-11T03:38:15.808Z,100536.00
2022-09-11T03:40:43.598Z,100532.31
2022-09-11T03:43:12.395Z,100542.44
2022-09-11T03:45:39.459Z,100541.38
2022-09-11T03:48:06.622Z,100543.00
2022-09-11T03:50:34.308Z,100534.56
2022-09-11T03:53:01.020Z,100532.66
2022-09-11T03:55:27.601Z,100547.16
2022-09-11T03:57:54.191Z,100545.22
2022-09-11T04:00:20.826Z,100552.34
2022-09-11T04:02:47.343Z,100555.91
2022-09-11T04:05:13.805Z,100552.00
2022-09-11T04:07:40.306Z,100554.56
2022-09-11T04:10:06.900Z,100555.53
2022-09-11T04:12:33.826Z,100552.91
2022-09-11T04:15:00.385Z,100550.75
2022-09-11T04:17:29.690Z,100551.56
2022-09-11T04:19:56.249Z,100554.56
2022-09-11T04:22:24.414Z,100560.31
2022-09-11T04:24:52.059Z,100560.31
2022-09-11T04:27:19.074Z,100556.78
2022-09-11T04:29:46.245Z,100558.94
2022-09-11T04:32:13.339Z,100552.69
2022-09-11T04:34:39.878Z,100559.50
2022-09-11T04:37:06.380Z,100567.09
2022-09-11T04:39:34.229Z,100555.81
2022-09-11T04:42:02.093Z,100562.19
2022-09-11T04:44:29.278Z,100565.47
2022-09-11T04:46:56.397Z,100574.44
2022-09-11T04:49:23.435Z,100577.44
2022-09-11T04:51:50.626Z,100577.44
2022-09-11T04:54:21.397Z,100576.38
2022-09-11T04:56:48.965Z,100573.63
2022-09-11T04:59:22.428Z,100581.81
2022-09-11T05:01:49.382Z,100580.72
2022-09-11T05:04:21.720Z,100576.88
2022-09-11T05:06:49.543Z,100582.91
2022-09-11T05:09:17.799Z,100584.25
2022-09-11T05:11:44.376Z,100580.44
2022-09-11T05:14:11.778Z,100579.88
2022-09-11T05:16:39.829Z,100583.16
2022-09-11T05:19:06.732Z,100582.59
2022-09-11T05:21:33.779Z,100580.16
2022-09-11T05:24:02.102Z,100591.88
2022-09-11T05:26:31.981Z,100589.94
2022-09-11T05:29:00.808Z,100597.03
2022-09-11T05:31:29.140Z,100603.00
2022-09-11T05:33:56.632Z,100600.03
2022-09-11T05:36:26.393Z,100607.94
2022-09-11T05:38:53.717Z,100613.91
2022-09-11T05:41:21.189Z,100624.28
2022-09-11T05:43:47.865Z,100621.28
2022-09-11T05:46:19.069Z,100631.63
2022-09-11T05:48:45.870Z,100629.19
2022-09-11T05:51:15.781Z,100634.63
2022-09-11T05:53:42.546Z,100631.63
2022-09-11T05:56:12.921Z,100635.19
2022-09-11T05:58:39.725Z,100642.81
2022-09-11T06:01:17.760Z,100644.97
2022-09-11T06:03:45.269Z,100645.28
2022-09-11T06:06:12.893Z,100649.94
2022-09-11T06:08:43.273Z,100655.38
2022-09-11T06:11:10.778Z,100658.13
2022-09-11T06:13:39.657Z,100661.94
2022-09-11T06:16:18.789Z,100658.91
2022-09-11T06:18:49.586Z,100664.13
2022-09-11T06:21:20.400Z,100667.94
2022-09-11T06:23:48.783Z,100677.22
2022-09-11T06:26:17.302Z,100677.22
2022-09-11T06:28:44.147Z,100681.03
2022-09-11T06:31:12.978Z,100689.19
2022-09-11T06:33:41.046Z,100694.13
2022-09-11T06:36:11.159Z,100703.41
2022-09-11T06:38:40.561Z,100704.47
2022-09-11T06:41:12.826Z,100706.66
2022-09-11T06:43:40.212Z,100711.03
2022-09-11T06:46:19.133Z,100717.00
2022-09-11T06:48:47.908Z,100712.09
2022-09-11T06:51:20.282Z,100729.56
2022-09-11T06:53:48.923Z,100723.03
2022-09-11T06:56:17.757Z,100722.47
2022-09-11T06:58:45.415Z,100724.38
2022-09-11T07:01:17.504Z,100732.31
2022-09-11T07:03:45.501Z,100724.09
2022-09-11T07:06:16.837Z,100726.81
2022-09-11T07:08:44.090Z,100731.19
2022-09-11T07:11:14.305Z,100728.75
2022-09-11T07:13:41.108Z,100723.03
2022-09-11T07:16:09.882Z,100727.66
2022-09-11T07:18:41.799Z,100732.28
2022-09-11T07:21:18.509Z,100727.66
2022-09-11T07:23:49.532Z,100738.59
2022-09-11T07:26:17.109Z,100737.22
2022-09-11T07:28:43.663Z,100736.38
2022-09-11T07:31:20.713Z,100740.47
2022-09-11T07:33:49.440Z,100747.56
2022-09-11T07:36:27.392Z,100739.66
2022-09-11T07:38:55.169Z,100748.13
2022-09-11T07:41:23.616Z,100748.66
2022-09-11T07:43:55.912Z,100755.75
2022-09-11T07:46:24.438Z,100756.84
2022-09-11T07:48:50.964Z,100754.69
2022-09-11T07:51:19.096Z,100752.50
2022-09-11T07:53:51.045Z,100749.78
2022-09-11T07:56:20.624Z,100750.84
2022-09-11T07:58:48.055Z,100758.47
2022-09-11T08:01:17.396Z,100757.13
2022-09-11T08:03:45.002Z,100761.25
2022-09-11T08:06:14.796Z,100767.50
2022-09-11T08:08:43.704Z,100772.94
2022-09-11T08:11:16.459Z,100770.78
2022-09-11T08:13:43.732Z,100771.03
2022-09-11T08:16:10.520Z,100776.19
2022-09-11T08:18:37.268Z,100780.84
2022-09-11T08:21:13.313Z,100767.22
2022-09-11T08:23:42.171Z,100775.94
2022-09-11T08:26:17.640Z,100778.66
2022-09-11T08:28:45.106Z,100779.72
2022-09-11T08:31:13.252Z,100791.44
2022-09-11T08:33:39.933Z,100795.78
2022-09-11T08:36:10.197Z,100796.03
2022-09-11T08:38:38.030Z,100795.44
2022-09-11T08:41:36.835Z,100804.22
2022-09-11T08:44:09.048Z,100812.84
2022-09-11T08:46:39.949Z,100821.31
2022-09-11T08:49:26.186Z,100814.25
2022-09-11T08:52:01.034Z,100813.41
2022-09-11T08:54:31.991Z,100813.38
2022-09-11T08:57:16.785Z,100820.78
2022-09-11T08:59:54.079Z,100819.63
2022-09-11T09:02:42.106Z,100816.97
2022-09-11T09:05:20.550Z,100818.84
2022-09-11T09:07:56.341Z,100812.84
2022-09-11T09:10:45.077Z,100814.50
2022-09-11T09:13:56.286Z,100819.47
2022-09-11T09:16:46.422Z,100819.22
2022-09-11T09:19:25.626Z,100815.38
2022-09-11T09:22:19.114Z,100817.84
2022-09-11T09:24:53.787Z,100827.13
2022-09-11T09:27:29.103Z,100823.28
2022-09-11T09:30:02.235Z,100836.94
2022-09-11T09:32:40.868Z,100837.50
2022-09-11T09:35:21.340Z,100834.78
2022-09-11T09:37:51.672Z,100836.13
2022-09-11T09:40:19.162Z,100842.38
2022-09-11T09:42:58.687Z,100838.63
2022-09-11T09:45:58.586Z,100838.06
2022-09-11T09:48:27.896Z,100845.13
2022-09-11T09:50:57.684Z,100848.66
2022-09-11T09:53:27.625Z,100848.97
2022-09-11T09:55:56.920Z,100854.97
2022-09-11T09:58:27.122Z,100847.88
2022-09-11T10:00:53.622Z,100851.69
2022-09-11T10:03:24.191Z,100854.22
2022-09-11T10:05:53.956Z,100848.44
2022-09-11T10:08:34.819Z,100847.38
2022-09-11T10:11:04.482Z,100846.25
2022-09-11T10:13:38.257Z,100852.81
2022-09-11T10:16:19.450Z,100847.38
2022-09-11T10:18:47.175Z,100851.69
2022-09-11T10:21:15.016Z,100853.06
2022-09-11T10:23:47.540Z,100852.81
2022-09-11T10:26:26.763Z,100846.56
2022-09-11T10:28:55.000Z,100855.56
2022-09-11T10:31:22.920Z,100857.47
2022-09-11T10:33:56.595Z,100852.31
2022-09-11T10:36:25.634Z,100850.41
2022-09-11T10:38:53.020Z,100852.88
2022-09-11T10:41:23.683Z,100855.63
2022-09-11T10:44:02.183Z,100864.34
2022-09-11T10:46:39.179Z,100855.13
2022-09-11T10:49:05.617Z,100857.84
2022-09-11T10:51:39.206Z,100856.75
2022-09-11T10:54:21.446Z,100866.59
2022-09-11T10:56:57.878Z,100867.66
2022-09-11T10:59:27.611Z,100870.41
2022-09-11T11:01:54.759Z,100876.66
2022-09-11T11:04:22.936Z,100879.16
2022-09-11T11:06:52.240Z,100876.94
2022-09-11T11:09:31.339Z,100884.59
2022-09-11T11:12:17.408Z,100874.75
2022-09-11T11:15:03.716Z,100878.59
2022-09-11T11:17:40.679Z,100879.69
2022-09-11T11:20:10.304Z,100879.09
2022-09-11T11:22:58.704Z,100878.28
2022-09-11T11:25:31.414Z,100882.41
2022-09-11T11:28:34.204Z,100872.56
2022-09-11T11:31:06.737Z,100880.75
2022-09-11T11:33:42.913Z,100885.13
2022-09-11T11:36:16.901Z,100876.94
2022-09-11T11:39:07.729Z,100885.09
2022-09-11T11:41:44.613Z,100882.41
2022-09-11T11:44:12.945Z,100885.63
2022-09-11T11:46:46.116Z,100886.22
2022-09-11T11:49:19.521Z,100884.84
2022-09-11T11:52:13.182Z,100892.19
2022-09-11T11:54:49.607Z,100887.84
2022-09-11T11:57:22.469Z,100881.28
2022-09-11T12:00:10.035Z,100885.66
2022-09-11T12:02:50.473Z,100880.19
2022-09-11T12:05:24.901Z,100883.44
2022-09-11T12:07:51.945Z,100880.19
2022-09-11T12:10:22.537Z,100892.22
2022-09-11T12:12:54.189Z,100879.66
2022-09-11T12:15:25.549Z,100876.91
2022-09-11T12:18:01.851Z,100879.88
2022-09-11T12:20:32.800Z,100886.97
2022-09-11T12:23:00.783Z,100877.69
2022-09-11T12:25:31.206Z,100875.72
2022-09-11T12:28:19.938Z,100872.38
2022-09-11T12:31:24.961Z,100876.19
2022-09-11T12:33:54.582Z,100875.41
2022-09-11T12:36:33.339Z,100878.34
2022-09-11T12:39:03.998Z,100873.16
2022-09-11T12:41:35.692Z,100876.16
2022-09-11T12:44:04.972Z,100876.69
2022-09-11T12:46:31.414Z,100885.19
2022-09-11T12:49:21.994Z,100878.63
2022-09-11T12:51:55.239Z,100885.72
2022-09-11T12:54:24.224Z,100877.81
2022-09-11T12:56:59.328Z,100869.59
2022-09-11T12:59:31.975Z,100879.97
2022-09-11T13:01:59.822Z,100877.81
2022-09-11T13:04:31.312Z,100873.94
2022-09-11T13:07:04.141Z,100876.69
2022-09-11T13:09:49.708Z,100870.63
2022-09-11T13:12:19.173Z,100868.75
2022-09-11T13:14:58.509Z,100860.53
2022-09-11T13:17:45.346Z,100859.19
2022-09-11T13:20:22.937Z,100850.38
2022-09-11T13:22:56.167Z,100846.88
2022-09-11T13:25:28.091Z,100852.03
2022-09-11T13:27:59.637Z,100853.16
2022-09-11T13:30:27.027Z,100843.28
2022-09-11T13:33:07.810Z,100838.84
2022-09-11T13:35:40.383Z,100843.22
2022-09-11T13:38:13.117Z,100843.44
2022-09-11T13:41:14.318Z,100840.22
2022-09-11T13:43:48.608Z,100844.00
2022-09-11T13:46:15.323Z,100840.91
2022-09-11T13:48:43.590Z,100830.09
2022-09-11T13:51:15.123Z,100843.63
2022-09-11T13:53:44.802Z,100836.66
2022-09-11T13:56:47.354Z,100829.50
2022-09-11T13:59:39.450Z,100836.72
2022-09-11T14:02:33.390Z,100832.47
2022-09-11T14:05:27.240Z,100825.88
2022-09-11T14:08:07.592Z,100829.81
2022-09-11T14:11:00.891Z,100823.03
2022-09-11T14:13:35.973Z,100820.22
2022-09-11T14:16:14.435Z,100822.50
2022-09-11T14:18:46.303Z,100815.63
2022-09-11T14:21:17.175Z,100808.91
2022-09-11T14:23:48.301Z,100812.38
2022-09-11T14:26:16.051Z,100809.84
2022-09-11T14:28:51.691Z,100815.69
2022-09-11T14:31:38.965Z,100813.41
2022-09-11T14:34:05.327Z,100812.16
2022-09-11T14:36:32.349Z,100808.34
2022-09-11T14:39:00.046Z,100809.47
2022-09-11T14:41:26.558Z,100808.34
2022-09-11T14:43:53.232Z,100807.22
2022-09-11T14:46:19.753Z,100799.50
2022-09-11T14:48:46.901Z,100800.53
2022-09-11T14:51:13.916Z,100804.31
2022-09-11T14:53:43.675Z,100802.59
2022-09-11T14:56:10.464Z,100794.25
2022-09-11T14:58:36.981Z,100795.88
2022-09-11T15:01:03.572Z,100804.63
2022-09-11T15:03:31.083Z,100800.75
2022-09-11T15:05:58.706Z,100802.41
2022-09-11T15:08:25.912Z,100805.44
2022-09-11T15:10:53.635Z,100795.88
2022-09-11T15:13:21.276Z,100795.66
2022-09-11T15:15:47.917Z,100795.44
2022-09-11T15:18:14.785Z,100800.94
2022-09-11T15:20:41.313Z,100793.00
2022-09-11T15:23:07.921Z,100799.91
2022-09-11T15:25:34.421Z,100798.28
2022-09-11T15:28:01.281Z,100796.94
2022-09-11T15:30:28.039Z,100789.31
2022-09-11T15:32:55.023Z,100792.38
2022-09-11T15:35:23.262Z,100789.09
2022-09-11T15:37:50.840Z,100791.84
2022-09-11T15:40:18.160Z,100789.09
2022-09-11T15:42:45.089Z,100786.06
2022-09-11T15:45:12.963Z,100783.03
2022-09-11T16:12:58.899Z,100778.28
2022-09-11T16:15:25.594Z,100774.56
2022-09-11T16:17:51.998Z,100778.25
2022-09-11T16:20:18.513Z,100773.66
2022-09-11T16:22:45.512Z,100775.69
2022-09-11T16:25:12.166Z,100780.16
2022-09-11T16:27:45.541Z,100780.44
2022-09-11T16:33:02.399Z,100766.94
2022-09-11T16:35:30.656Z,100771.72
2022-09-11T16:37:57.604Z,100777.59
2022-09-11T16:40:24.017Z,100765.06
2022-09-11T16:42:50.471Z,100765.13
2022-09-11T16:45:17.021Z,100769.09
2022-09-11T16:47:43.793Z,100767.22
2022-09-11T16:50:10.318Z,100761.81
2022-09-11T16:52:38.063Z,100759.19
2022-09-11T16:55:07.047Z,100753.47
2022-09-11T16:57:34.535Z,100757.91
2022-09-11T17:00:01.018Z,100762.34
2022-09-11T17:02:27.516Z,100756.41
2022-09-11T17:04:53.963Z,100755.34
2022-09-11T17:07:20.859Z,100753.81
2022-09-11T17:09:47.403Z,100748.72
2022-09-11T17:12:15.253Z,100753.44
2022-09-11T17:14:41.678Z,100747.50
2022-09-11T17:17:10.399Z,100747.56
2022-09-11T17:19:36.840Z,100746.84
2022-09-11T17:22:03.923Z,100757.06
2022-09-11T17:24:31.909Z,100743.69
2022-09-11T17:26:58.380Z,100748.97
2022-09-11T17:29:24.884Z,100747.34
2022-09-11T17:32:05.142Z,100740.28
2022-09-11T17:34:37.836Z,100743.63
2022-09-11T17:37:04.732Z,100748.66
2022-09-11T17:39:31.240Z,100749.81
2022-09-11T17:41:59.981Z,100747.44
2022-09-11T17:44:26.443Z,100750.00
2022-09-11T17:46:52.896Z,100755.00
2022-09-11T17:49:21.030Z,100760.00
2022-09-11T17:51:47.485Z,100755.69
2022-09-11T17:54:13.932Z,100754.09
2022-09-11T17:56:42.378Z,100753.31
2022-09-11T17:59:09.294Z,100759.38
2022-09-11T18:01:35.886Z,100758.59
2022-09-11T18:04:02.720Z,100760.25
2022-09-11T18:06:36.188Z,100761.34
2022-09-11T18:09:13.796Z,100765.22
2022-09-11T18:11:42.749Z,100767.50
2022-09-11T18:14:10.407Z,100776.53
2022-09-11T18:16:37.793Z,100777.41
2022-09-11T18:19:05.527Z,100779.06
2022-09-11T18:21:38.323Z,100775.56
2022-09-11T18:24:06.420Z,100776.13
2022-09-11T18:26:39.479Z,100778.63
2022-09-11T18:29:10.470Z,100778.66
2022-09-11T18:31:40.020Z,100782.25
2022-09-11T18:37:30.696Z,100783.97
2022-09-11T18:39:57.264Z,100782.31
2022-09-11T18:42:23.926Z,100790.84
2022-09-11T18:44:50.498Z,100785.94
2022-09-11T18:47:20.718Z,100788.69
2022-09-11T18:49:51.119Z,100788.16
2022-09-11T18:52:21.563Z,100796.13
2022-09-11T18:54:50.607Z,100790.38
2022-09-11T18:57:17.185Z,100783.84
2022-09-11T18:59:48.842Z,100792.06
2022-09-11T19:02:16.218Z,100782.25
2022-09-11T19:04:45.646Z,100797.06
2022-09-11T19:07:15.978Z,100793.78
2022-09-11T19:09:45.786Z,100794.09
2022-09-11T19:12:12.688Z,100798.47
2022-09-11T19:14:42.337Z,100800.41
2022-09-11T19:17:08.829Z,100793.03
2022-09-11T19:19:35.598Z,100797.41
2022-09-11T19:22:02.042Z,100804.53
2022-09-11T19:24:30.088Z,100809.59
2022-09-11T19:26:57.135Z,100802.91
2022-09-11T19:29:23.571Z,100815.22
2022-09-11T19:31:50.055Z,100811.25
2022-09-11T19:34:16.959Z,100811.94
2022-09-11T19:36:43.518Z,100809.75
2022-09-11T19:39:15.445Z,100814.72
2022-09-11T19:41:42.074Z,100817.44
2022-09-11T19:44:15.531Z,100819.63
2022-09-11T19:46:43.017Z,100816.63
2022-09-11T19:49:13.639Z,100819.09
2022-09-11T19:51:42.506Z,100824.81
2022-09-11T19:54:14.495Z,100822.38
2022-09-11T19:56:42.497Z,100842.00
2022-09-11T19:59:09.106Z,100822.09
2022-09-11T20:01:35.980Z,100819.34
2022-09-11T20:04:08.116Z,100826.69
2022-09-11T20:06:37.482Z,100818.22
2022-09-11T20:11:56.018Z,100819.03
2022-09-11T20:14:25.640Z,100825.56
2022-09-11T20:16:52.196Z,100831.06
2022-09-11T20:19:21.010Z,100827.22
2022-09-11T20:21:47.529Z,100826.09
2022-09-11T20:24:17.556Z,100825.34
2022-09-11T20:26:46.945Z,100824.22
2022-09-11T20:29:15.978Z,100825.84
2022-09-11T20:31:48.731Z,100826.13
2022-09-11T20:34:19.838Z,100831.00
2022-09-11T20:36:47.451Z,100823.38
2022-09-11T20:39:15.437Z,100832.06
2022-09-11T20:41:45.948Z,100824.44
2022-09-11T20:44:12.477Z,100825.25
2022-09-11T20:46:39.020Z,100821.78
2022-09-11T20:49:06.036Z,100823.91
2022-09-11T20:51:33.555Z,100823.88
2022-09-11T20:54:02.749Z,100824.94
2022-09-11T20:56:29.739Z,100821.06
2022-09-11T20:58:56.684Z,100828.97
2022-09-11T21:01:27.546Z,100824.84
2022-09-11T21:03:56.592Z,100824.84
2022-09-11T21:06:30.274Z,100817.78
2022-09-11T21:09:06.506Z,100817.78
2022-09-11T21:11:33.448Z,100817.78
2022-09-11T21:14:00.598Z,100815.84
2022-09-11T21:16:27.179Z,100812.84
2022-09-11T21:18:56.432Z,100813.72
2022-09-11T21:21:23.821Z,100811.81
2022-09-11T21:23:54.371Z,100813.78
2022-09-11T21:26:20.891Z,100811.34
2022-09-11T21:28:47.435Z,100804.00
2022-09-11T21:31:14.019Z,100814.91
2022-09-11T21:33:41.333Z,100816.56
2022-09-11T21:36:07.999Z,100814.66
2022-09-11T21:38:36.206Z,100802.13
2022-09-11T21:41:04.953Z,100808.13
2022-09-11T21:43:31.665Z,100806.47
2022-09-11T21:45:58.395Z,100793.13
2022-09-11T21:48:24.974Z,100800.50
2022-09-11T21:50:51.775Z,100805.41
2022-09-11T21:53:19.265Z,100803.25
2022-09-11T21:55:47.218Z,100803.50
2022-09-11T21:58:17.150Z,100803.22
2022-09-11T22:00:44.463Z,100796.16
2022-09-11T22:03:12.731Z,100795.59
2022-09-11T22:05:43.498Z,100790.16
2022-09-11T22:08:14.821Z,100790.44
2022-09-11T22:10:46.773Z,100788.25
2022-09-11T22:13:13.690Z,100789.91
2022-09-11T22:15:48.517Z,100786.34
2022-09-11T22:18:16.107Z,100786.09
2022-09-11T22:20:43.075Z,100786.09
2022-09-11T22:23:15.070Z,100780.34
2022-09-11T22:25:41.799Z,100785.81
2022-09-11T22:28:08.780Z,100788.53
2022-09-11T22:30:35.344Z,100783.09
2022-09-11T22:33:02.020Z,100794.00
2022-09-11T22:35:28.910Z,100793.16
2022-09-11T22:37:55.616Z,100783.09
2022-09-11T22:40:22.132Z,100791.53
2022-09-11T22:42:49.916Z,100785.25
2022-09-11T22:45:17.211Z,100791.53
2022-09-11T22:47:43.748Z,100783.59
2022-09-11T22:50:10.388Z,100785.53
2022-09-11T22:52:37.463Z,100794.53
2022-09-11T22:55:06.139Z,100782.00
2022-09-11T22:57:35.011Z,100786.09
2022-09-11T23:00:02.724Z,100781.41
2022-09-11T23:02:29.292Z,100784.97
2022-09-11T23:05:14.471Z,100788.78
2022-09-11T23:07:41.180Z,100791.22
2022-09-11T23:10:09.778Z,100791.50
2022-09-11T23:12:37.349Z,100781.97
2022-09-11T23:15:04.579Z,100791.22
2022-09-11T23:17:31.057Z,100786.06
2022-09-11T23:19:57.444Z,100778.13
2022-09-11T23:22:24.150Z,100781.41
2022-09-11T23:24:50.608Z,100779.78
2022-09-11T23:27:17.014Z,100779.22
2022-09-11T23:29:43.482Z,100776.78
2022-09-11T23:32:09.963Z,100783.03
2022-09-11T23:34:36.424Z,100783.03
2022-09-11T23:37:02.891Z,100786.84
2022-09-11T23:39:29.350Z,100790.69
2022-09-11T23:41:55.735Z,100784.69
2022-09-11T23:44:22.225Z,100784.97
2022-09-11T23:46:48.643Z,100785.25
2022-09-11T23:49:15.448Z,100780.03
2022-09-11T23:51:42.702Z,100774.84
2022-09-11T23:54:09.281Z,100787.16
2022-09-11T23:56:35.759Z,100773.75
2022-09-11T23:59:02.177Z,100778.16
